createdAt,value
2022-10-28T00:01:22.068Z,20.37
2022-10-28T00:03:56.177Z,19.50
2022-10-28T00:06:27.880Z,20.57
2022-10-28T00:08:55.101Z,21.17
2022-10-28T00:11:29.832Z,20.20
2022-10-28T00:14:01.010Z,20.33
2022-10-28T00:16:32.241Z,21.00
2022-10-28T00:19:00.934Z,19.90
2022-10-28T00:21:32.295Z,20.77
2022-10-28T00:23:59.925Z,19.67
2022-10-28T00:26:31.353Z,21.60
2022-10-28T00:29:06.272Z,18.73
2022-10-28T00:31:35.234Z,18.30
2022-10-28T00:34:05.217Z,18.73
2022-10-28T00:36:36.870Z,20.10
2022-10-28T00:39:11.686Z,20.83
2022-10-28T00:41:42.660Z,19.93
2022-10-28T00:44:47.483Z,19.93
2022-10-28T00:47:33.509Z,19.20
2022-10-28T00:50:26.648Z,19.93
2022-10-28T00:53:03.307Z,21.27
2022-10-28T00:55:32.077Z,20.50
2022-10-28T00:58:01.352Z,20.80
2022-10-28T01:00:28.532Z,19.63
2022-10-28T01:02:56.629Z,18.50
2022-10-28T01:05:29.155Z,19.60
2022-10-28T01:08:01.889Z,19.97
2022-10-28T01:11:08.084Z,20.57
2022-10-28T01:13:46.959Z,18.80
2022-10-28T01:16:41.598Z,17.57
2022-10-28T01:19:46.225Z,19.13
2022-10-28T01:25:19.770Z,16.53
2022-10-28T01:28:24.249Z,19.43
2022-10-28T01:31:18.564Z,18.90
2022-10-28T01:33:54.895Z,19.13
2022-10-28T01:36:54.807Z,18.60
2022-10-28T01:39:35.037Z,19.73
2022-10-28T01:42:16.566Z,19.93
2022-10-28T01:44:59.168Z,21.17
2022-10-28T01:47:32.342Z,21.07
2022-10-28T01:50:18.648Z,22.80
2022-10-28T01:52:48.511Z,21.40
2022-10-28T01:55:29.275Z,19.80
2022-10-28T01:57:59.563Z,22.27
2022-10-28T02:00:27.269Z,20.30
2022-10-28T02:02:56.578Z,21.10
2022-10-28T02:05:46.642Z,22.67
2022-10-28T02:08:19.735Z,20.37
2022-10-28T02:11:02.997Z,20.77
2022-10-28T02:13:47.878Z,21.17
2022-10-28T02:16:42.424Z,20.77
2022-10-28T02:19:44.126Z,22.50
2022-10-28T02:22:37.759Z,21.23
2022-10-28T02:25:18.769Z,22.40
2022-10-28T02:28:06.411Z,23.23
2022-10-28T02:30:49.628Z,23.40
2022-10-28T02:33:25.236Z,22.87
2022-10-28T02:36:04.035Z,23.30
2022-10-28T02:38:46.664Z,22.90
2022-10-28T02:41:21.359Z,24.93
2022-10-28T02:43:57.744Z,22.40
2022-10-28T02:46:27.238Z,24.70
2022-10-28T02:49:06.830Z,23.37
2022-10-28T02:51:58.310Z,23.70
2022-10-28T02:54:40.303Z,23.67
2022-10-28T02:57:17.870Z,23.60
2022-10-28T02:59:57.211Z,24.27
2022-10-28T03:02:25.349Z,22.30
2022-10-28T03:04:52.587Z,23.00
2022-10-28T03:07:20.148Z,22.10
2022-10-28T03:09:47.269Z,23.03
2022-10-28T03:12:14.454Z,24.60
2022-10-28T03:14:42.461Z,22.70
2022-10-28T03:17:09.538Z,23.20
2022-10-28T03:19:36.651Z,23.53
2022-10-28T03:22:03.879Z,22.70
2022-10-28T03:24:30.957Z,24.03
2022-10-28T03:26:58.080Z,24.07
2022-10-28T03:29:25.159Z,24.43
2022-10-28T03:31:52.213Z,22.57
2022-10-28T03:34:19.263Z,25.13
2022-10-28T03:36:46.324Z,24.67
2022-10-28T03:39:14.997Z,23.33
2022-10-28T03:41:42.062Z,27.17
2022-10-28T03:44:09.059Z,28.60
2022-10-28T03:46:36.346Z,27.60
2022-10-28T03:49:04.352Z,25.03
2022-10-28T03:51:31.514Z,27.70
2022-10-28T03:53:58.599Z,25.07
2022-10-28T03:56:25.743Z,25.93
2022-10-28T04:01:25.087Z,27.37
2022-10-28T04:03:52.473Z,32.57
2022-10-28T04:06:19.514Z,28.07
2022-10-28T04:08:46.584Z,26.97
2022-10-28T04:11:13.599Z,27.17
2022-10-28T04:13:40.668Z,28.17
2022-10-28T04:16:07.908Z,25.70
2022-10-28T04:18:35.627Z,27.27
2022-10-28T04:21:03.581Z,29.30
2022-10-28T04:23:30.715Z,29.43
2022-10-28T04:25:57.896Z,27.53
2022-10-28T04:28:24.889Z,31.20
2022-10-28T04:30:52.376Z,29.63
2022-10-28T04:33:19.468Z,29.50
2022-10-28T04:35:46.500Z,30.50
2022-10-28T04:38:14.315Z,31.73
2022-10-28T04:40:41.800Z,30.00
2022-10-28T04:43:10.198Z,30.73
2022-10-28T04:45:38.485Z,30.87
2022-10-28T04:48:05.678Z,30.27
2022-10-28T04:50:32.897Z,31.63
2022-10-28T04:53:00.446Z,30.47
2022-10-28T04:55:27.652Z,29.57
2022-10-28T04:58:00.420Z,30.43
2022-10-28T05:00:29.294Z,31.80
2022-10-28T05:02:57.246Z,30.90
2022-10-28T05:05:24.607Z,30.50
2022-10-28T05:07:52.007Z,30.50
2022-10-28T05:10:19.301Z,29.87
2022-10-28T05:12:46.567Z,29.13
2022-10-28T05:15:15.435Z,31.57
2022-10-28T05:17:47.360Z,32.00
2022-10-28T05:20:17.524Z,31.43
2022-10-28T05:22:53.901Z,30.77
2022-10-28T05:25:22.733Z,28.70
2022-10-28T05:27:50.249Z,31.00
2022-10-28T05:30:18.344Z,31.87
2022-10-28T05:32:47.402Z,30.83
2022-10-28T05:35:16.423Z,29.47
2022-10-28T05:37:44.046Z,29.83
2022-10-28T05:40:12.242Z,30.30
2022-10-28T05:42:43.431Z,33.13
2022-10-28T05:45:12.255Z,30.80
2022-10-28T05:47:46.959Z,30.77
2022-10-28T05:50:16.561Z,31.07
2022-10-28T05:52:53.009Z,30.23
2022-10-28T05:55:22.364Z,31.83
2022-10-28T05:57:52.130Z,31.37
2022-10-28T06:00:22.477Z,29.60
2022-10-28T06:02:49.607Z,31.90
2022-10-28T06:05:17.177Z,30.50
2022-10-28T06:07:44.296Z,30.10
2022-10-28T06:10:11.994Z,30.13
2022-10-28T06:12:37.995Z,30.67
2022-10-28T06:15:05.940Z,28.70
2022-10-28T06:17:32.961Z,31.03
2022-10-28T06:20:00.046Z,30.43
2022-10-28T06:22:27.121Z,29.80
2022-10-28T06:24:54.127Z,29.63
2022-10-28T06:27:21.139Z,27.93
2022-10-28T06:29:48.125Z,30.07
2022-10-28T06:32:15.396Z,29.03
2022-10-28T06:34:42.393Z,29.57
2022-10-28T06:37:09.520Z,26.93
2022-10-28T06:39:39.329Z,27.03
2022-10-28T06:42:06.398Z,28.10
2022-10-28T06:44:33.651Z,25.87
2022-10-28T06:47:02.349Z,24.90
2022-10-28T06:49:29.492Z,23.57
2022-10-28T06:51:56.501Z,22.63
2022-10-28T06:54:23.634Z,24.87
2022-10-28T06:56:50.965Z,22.20
2022-10-28T06:59:18.178Z,23.57
2022-10-28T07:01:45.438Z,21.80
2022-10-28T07:04:13.566Z,23.20
2022-10-28T07:06:41.389Z,21.90
2022-10-28T07:09:10.963Z,21.00
2022-10-28T07:11:38.001Z,20.93
2022-10-28T07:14:05.001Z,20.27
2022-10-28T07:16:32.347Z,18.90
2022-10-28T07:18:59.621Z,19.80
2022-10-28T07:21:28.598Z,19.93
2022-10-28T07:23:59.057Z,18.93
2022-10-28T07:26:26.385Z,20.80
2022-10-28T07:28:54.463Z,18.73
2022-10-28T07:31:21.639Z,18.60
2022-10-28T07:33:55.334Z,15.77
2022-10-28T07:36:22.539Z,16.27
2022-10-28T07:38:53.406Z,17.77
2022-10-28T07:41:22.357Z,18.00
2022-10-28T07:43:49.526Z,16.80
2022-10-28T07:46:18.253Z,15.77
2022-10-28T07:48:46.116Z,17.70
2022-10-28T07:51:15.414Z,16.27
2022-10-28T07:53:43.364Z,15.20
2022-10-28T07:56:15.047Z,15.37
2022-10-28T07:58:44.172Z,15.17
2022-10-28T08:01:15.026Z,14.43
2022-10-28T08:03:42.305Z,15.33
2022-10-28T08:06:17.451Z,14.83
2022-10-28T08:08:47.489Z,14.07
2022-10-28T08:11:20.588Z,13.07
2022-10-28T08:13:48.087Z,13.10
2022-10-28T08:16:15.303Z,12.63
2022-10-28T08:18:42.480Z,13.77
2022-10-28T08:21:10.963Z,13.00
2022-10-28T08:23:38.439Z,12.43
2022-10-28T08:26:05.956Z,13.13
2022-10-28T08:28:33.297Z,13.33
2022-10-28T08:31:09.455Z,13.30
2022-10-28T08:33:42.642Z,13.10
2022-10-28T08:36:13.419Z,11.63
2022-10-28T08:38:45.523Z,12.63
2022-10-28T08:41:38.206Z,13.70
2022-10-28T08:44:08.457Z,12.70
2022-10-28T08:47:07.786Z,10.67
2022-10-28T08:49:39.489Z,11.87
2022-10-28T08:52:26.630Z,10.47
2022-10-28T08:55:23.566Z,12.40
2022-10-28T08:58:05.003Z,11.50
2022-10-28T09:00:34.152Z,11.67
2022-10-28T09:03:12.875Z,11.50
2022-10-28T09:05:48.008Z,11.60
2022-10-28T09:08:25.659Z,12.03
2022-10-28T09:11:10.959Z,12.60
2022-10-28T09:14:28.880Z,12.10
2022-10-28T09:17:18.321Z,10.87
2022-10-28T09:19:58.539Z,11.00
2022-10-28T09:22:42.135Z,9.27
2022-10-28T09:25:57.346Z,10.40
2022-10-28T09:28:56.274Z,11.40
2022-10-28T09:31:52.965Z,10.40
2022-10-28T09:34:39.843Z,10.00
2022-10-28T09:37:16.441Z,8.47
2022-10-28T09:40:16.031Z,9.40
2022-10-28T09:43:09.427Z,9.47
2022-10-28T09:45:41.871Z,9.00
2022-10-28T09:48:27.478Z,10.10
2022-10-28T09:50:57.420Z,8.67
2022-10-28T09:53:44.402Z,9.13
2022-10-28T09:56:11.703Z,8.33
2022-10-28T09:58:42.332Z,8.47
2022-10-28T10:01:09.479Z,8.30
2022-10-28T10:03:36.533Z,8.57
2022-10-28T10:06:19.917Z,7.53
2022-10-28T10:08:48.228Z,7.97
2022-10-28T10:11:40.409Z,8.73
2022-10-28T10:14:11.974Z,9.27
2022-10-28T10:16:47.108Z,9.90
2022-10-28T10:19:14.292Z,9.07
2022-10-28T10:21:51.480Z,8.20
2022-10-28T10:24:33.033Z,8.33
2022-10-28T10:27:10.472Z,9.50
2022-10-28T10:29:44.685Z,8.27
2022-10-28T10:32:22.557Z,8.90
2022-10-28T10:35:12.980Z,9.67
2022-10-28T10:37:45.740Z,9.37
2022-10-28T10:40:13.148Z,8.20
2022-10-28T10:42:51.618Z,8.60
2022-10-28T10:45:28.112Z,8.70
2022-10-28T10:48:15.923Z,9.17
2022-10-28T10:50:48.988Z,8.33
2022-10-28T10:53:31.082Z,8.00
2022-10-28T10:56:08.622Z,8.00
2022-10-28T10:58:49.676Z,8.23
2022-10-28T11:01:25.554Z,8.23
2022-10-28T11:04:01.326Z,7.27
2022-10-28T11:06:32.100Z,8.13
2022-10-28T11:09:05.630Z,7.33
2022-10-28T11:11:40.727Z,7.93
2022-10-28T11:14:10.837Z,7.77
2022-10-28T11:16:59.476Z,7.90
2022-10-28T11:19:36.462Z,7.93
2022-10-28T11:22:40.145Z,7.87
2022-10-28T11:25:34.334Z,7.17
2022-10-28T11:28:28.661Z,7.50
2022-10-28T11:31:40.051Z,7.57
2022-10-28T11:34:54.655Z,7.60
2022-10-28T11:38:12.725Z,6.80
2022-10-28T11:40:48.320Z,7.40
2022-10-28T11:43:55.037Z,7.30
2022-10-28T11:47:18.454Z,6.70
2022-10-28T11:50:12.803Z,7.00
2022-10-28T11:52:48.680Z,8.23
2022-10-28T11:55:52.472Z,7.40
2022-10-28T11:59:17.952Z,7.20
2022-10-28T12:02:17.408Z,7.20
2022-10-28T12:05:14.058Z,7.20
2022-10-28T12:07:54.265Z,6.43
2022-10-28T12:10:58.089Z,7.30
2022-10-28T12:13:36.688Z,6.43
2022-10-28T12:16:34.785Z,7.40
2022-10-28T12:19:20.457Z,6.87
2022-10-28T12:22:44.729Z,7.87
2022-10-28T12:25:19.611Z,8.93
2022-10-28T12:27:50.491Z,7.50
2022-10-28T12:30:25.523Z,8.43
2022-10-28T12:33:01.695Z,9.30
2022-10-28T12:35:35.368Z,8.80
2022-10-28T12:38:25.662Z,9.30
2022-10-28T12:41:17.406Z,7.90
2022-10-28T12:43:49.069Z,7.90
2022-10-28T12:46:50.608Z,7.93
2022-10-28T12:50:04.128Z,9.07
2022-10-28T12:53:02.301Z,9.20
2022-10-28T12:55:55.778Z,7.70
2022-10-28T12:58:35.736Z,8.80
2022-10-28T13:01:10.715Z,8.87
2022-10-28T13:03:39.487Z,8.83
2022-10-28T13:06:44.168Z,9.83
2022-10-28T13:09:25.183Z,10.13
2022-10-28T13:12:06.082Z,10.40
2022-10-28T13:14:53.236Z,9.20
2022-10-28T13:17:33.249Z,9.23
2022-10-28T13:20:18.732Z,8.30
2022-10-28T13:23:04.717Z,9.17
2022-10-28T13:25:58.809Z,9.33
2022-10-28T13:28:43.438Z,8.90
2022-10-28T13:31:11.270Z,9.47
2022-10-28T13:33:51.010Z,9.70
2022-10-28T13:36:29.752Z,8.60
2022-10-28T13:39:00.999Z,9.40
2022-10-28T13:41:43.348Z,8.63
2022-10-28T13:44:27.834Z,8.13
2022-10-28T13:47:30.269Z,8.27
2022-10-28T13:50:06.942Z,7.87
2022-10-28T13:52:43.046Z,8.40
2022-10-28T13:55:43.163Z,8.13
2022-10-28T13:58:23.017Z,8.23
2022-10-28T14:00:53.285Z,7.80
2022-10-28T14:03:27.992Z,8.00
2022-10-28T14:06:00.046Z,9.33
2022-10-28T14:08:38.794Z,10.13
2022-10-28T14:11:14.122Z,8.10
2022-10-28T14:13:49.148Z,9.73
2022-10-28T14:16:25.478Z,9.33
2022-10-28T14:19:19.228Z,9.60
2022-10-28T14:22:01.552Z,9.73
2022-10-28T14:24:37.293Z,9.70
2022-10-28T14:27:08.005Z,9.33
2022-10-28T14:29:49.700Z,9.20
2022-10-28T14:32:31.789Z,10.70
2022-10-28T14:35:12.866Z,10.90
2022-10-28T14:38:32.365Z,10.00
2022-10-28T14:41:34.818Z,10.17
2022-10-28T14:44:26.822Z,11.93
2022-10-28T14:47:08.868Z,11.27
2022-10-28T14:49:38.693Z,13.23
2022-10-28T14:52:12.747Z,10.20
2022-10-28T14:54:58.249Z,10.40
2022-10-28T14:57:34.264Z,11.23
2022-10-28T15:00:07.920Z,13.23
2022-10-28T15:02:38.077Z,12.60
2022-10-28T15:05:20.525Z,11.63
2022-10-28T15:07:48.645Z,10.87
2022-10-28T15:10:38.292Z,11.87
2022-10-28T15:13:17.008Z,12.93
2022-10-28T15:15:53.678Z,12.87
2022-10-28T15:18:24.661Z,13.43
2022-10-28T15:21:09.589Z,11.97
2022-10-28T15:23:36.600Z,12.90
2022-10-28T15:26:21.689Z,12.90
2022-10-28T15:28:48.823Z,12.37
2022-10-28T15:31:17.495Z,12.43
2022-10-28T15:33:44.594Z,12.40
2022-10-28T15:36:19.623Z,12.97
2022-10-28T15:38:49.212Z,11.37
2022-10-28T15:41:28.373Z,12.20
2022-10-28T15:43:59.295Z,12.03
2022-10-28T15:46:27.588Z,13.80
2022-10-28T15:48:59.839Z,13.40
2022-10-28T15:51:27.776Z,13.53
2022-10-28T15:54:10.798Z,14.00
2022-10-28T15:57:04.335Z,14.57
2022-10-28T15:59:31.468Z,14.07
2022-10-28T16:01:59.405Z,13.83
2022-10-28T16:04:26.568Z,14.20
2022-10-28T16:06:58.004Z,13.27
2022-10-28T16:09:32.709Z,15.17
2022-10-28T16:12:05.896Z,15.37
2022-10-28T16:14:38.324Z,12.80
2022-10-28T16:17:08.411Z,14.03
2022-10-28T16:19:44.364Z,16.67
2022-10-28T16:22:14.266Z,14.67
2022-10-28T16:24:42.381Z,16.00
2022-10-28T16:27:26.855Z,15.00
2022-10-28T16:29:54.116Z,14.37
2022-10-28T16:32:39.356Z,15.53
2022-10-28T16:35:20.531Z,16.47
2022-10-28T16:37:53.733Z,15.33
2022-10-28T16:40:50.579Z,14.83
2022-10-28T16:43:23.550Z,16.10
2022-10-28T16:45:56.265Z,15.53
2022-10-28T16:48:30.796Z,15.67
2022-10-28T16:51:02.808Z,15.90
2022-10-28T16:53:29.873Z,16.67
2022-10-28T16:55:59.200Z,19.93
2022-10-28T16:58:28.399Z,16.70
2022-10-28T17:00:56.526Z,26.60
2022-10-28T17:03:23.572Z,18.53
2022-10-28T17:05:50.701Z,15.93
2022-10-28T17:08:30.779Z,16.20
2022-10-28T17:11:05.186Z,17.93
2022-10-28T17:13:34.040Z,17.40
2022-10-28T17:16:01.012Z,15.87
2022-10-28T17:18:28.048Z,16.27
2022-10-28T17:21:02.716Z,17.37
2022-10-28T17:23:30.187Z,17.97
2022-10-28T17:26:02.734Z,18.30
2022-10-28T17:28:30.034Z,17.77
2022-10-28T17:31:08.372Z,16.93
2022-10-28T17:33:35.644Z,17.13
2022-10-28T17:36:08.650Z,16.83
2022-10-28T17:38:36.377Z,16.83
2022-10-28T17:41:03.399Z,15.60
2022-10-28T17:43:30.440Z,16.20
2022-10-28T17:46:07.745Z,15.77
2022-10-28T17:48:35.164Z,15.70
2022-10-28T17:51:02.235Z,17.33
2022-10-28T17:53:29.309Z,15.87
2022-10-28T17:56:02.378Z,17.93
2022-10-28T17:58:30.070Z,17.57
2022-10-28T18:01:03.895Z,16.20
2022-10-28T18:03:34.116Z,16.20
2022-10-28T18:06:07.655Z,15.63
2022-10-28T18:08:43.165Z,17.10
2022-10-28T18:11:13.669Z,18.80
2022-10-28T18:13:52.877Z,16.30
2022-10-28T18:16:24.409Z,16.97
2022-10-28T18:18:53.349Z,17.87
2022-10-28T18:21:21.277Z,17.20
2022-10-28T18:23:53.033Z,17.20
2022-10-28T18:26:20.544Z,18.50
2022-10-28T18:28:49.035Z,16.27
2022-10-28T18:31:20.485Z,19.80
2022-10-28T18:33:49.156Z,17.60
2022-10-28T18:36:23.210Z,18.03
2022-10-28T18:38:51.303Z,17.43
2022-10-28T18:41:24.485Z,18.90
2022-10-28T18:43:56.281Z,16.57
2022-10-28T18:46:23.628Z,18.00
2022-10-28T18:48:50.702Z,18.00
2022-10-28T18:51:18.010Z,17.37
2022-10-28T18:53:48.038Z,17.10
2022-10-28T18:56:18.796Z,16.83
2022-10-28T18:58:51.491Z,18.10
2022-10-28T19:01:22.880Z,17.33
2022-10-28T19:03:58.868Z,17.30
2022-10-28T19:06:30.688Z,17.00
2022-10-28T19:09:00.906Z,16.53
2022-10-28T19:11:30.451Z,17.80
2022-10-28T19:14:03.023Z,16.23
2022-10-28T19:16:33.580Z,16.80
2022-10-28T19:19:03.095Z,18.50
2022-10-28T19:21:30.339Z,17.40
2022-10-28T19:23:59.962Z,16.07
2022-10-28T19:26:27.934Z,15.50
2022-10-28T19:28:55.168Z,16.90
2022-10-28T19:31:25.521Z,16.53
2022-10-28T19:33:54.058Z,15.93
2022-10-28T19:36:29.901Z,16.67
2022-10-28T19:38:58.220Z,16.13
2022-10-28T19:41:28.095Z,16.77
2022-10-28T19:44:01.318Z,18.80
2022-10-28T19:46:31.714Z,15.30
2022-10-28T19:49:01.669Z,18.00
2022-10-28T19:51:32.583Z,16.77
2022-10-28T19:54:02.802Z,15.20
2022-10-28T19:56:32.844Z,16.53
2022-10-28T19:59:02.588Z,16.50
2022-10-28T20:01:32.867Z,16.13
2022-10-28T20:04:00.404Z,16.03
2022-10-28T20:06:33.372Z,16.00
2022-10-28T20:09:00.901Z,14.93
2022-10-28T20:11:35.299Z,15.60
2022-10-28T20:14:06.298Z,15.77
2022-10-28T20:16:33.555Z,15.40
2022-10-28T20:19:00.787Z,16.47
2022-10-28T20:21:30.742Z,16.27
2022-10-28T20:23:58.309Z,16.43
2022-10-28T20:26:29.392Z,14.57
2022-10-28T20:28:57.949Z,16.23
2022-10-28T20:31:29.069Z,17.83
2022-10-28T20:34:03.821Z,15.57
2022-10-28T20:36:37.094Z,17.17
2022-10-28T20:39:16.761Z,16.17
2022-10-28T20:41:46.012Z,16.20
2022-10-28T20:44:13.412Z,17.60
2022-10-28T20:46:40.707Z,16.27
2022-10-28T20:49:08.984Z,17.13
2022-10-28T20:51:36.853Z,17.93
2022-10-28T20:54:04.218Z,16.60
2022-10-28T20:56:36.479Z,18.57
2022-10-28T20:59:05.358Z,16.93
2022-10-28T21:01:36.629Z,17.93
2022-10-28T21:04:07.189Z,17.03
2022-10-28T21:06:35.791Z,15.37
2022-10-28T21:09:04.999Z,17.57
2022-10-28T21:11:32.195Z,18.10
2022-10-28T21:14:01.720Z,21.03
2022-10-28T21:16:29.852Z,17.80
2022-10-28T21:18:59.108Z,16.83
2022-10-28T21:21:26.823Z,16.30
2022-10-28T21:23:53.840Z,17.03
2022-10-28T21:26:21.413Z,18.77
2022-10-28T21:28:52.870Z,17.13
2022-10-28T21:31:21.565Z,18.30
2022-10-28T21:36:20.037Z,16.57
2022-10-28T21:38:52.634Z,16.40
2022-10-28T21:41:21.788Z,16.10
2022-10-28T21:43:51.660Z,17.13
2022-10-28T21:46:20.929Z,17.57
2022-10-28T21:48:48.168Z,16.40
2022-10-28T21:51:18.276Z,17.13
2022-10-28T21:53:45.962Z,17.37
2022-10-28T21:56:18.579Z,18.10
2022-10-28T21:58:48.562Z,15.80
2022-10-28T22:01:22.832Z,16.30
2022-10-28T22:03:52.275Z,17.17
2022-10-28T22:06:19.383Z,20.00
2022-10-28T22:08:46.923Z,17.83
2022-10-28T22:11:18.049Z,16.73
2022-10-28T22:13:45.320Z,19.67
2022-10-28T22:16:16.158Z,18.33
2022-10-28T22:18:43.947Z,16.33
2022-10-28T22:21:15.136Z,18.70
2022-10-28T22:23:42.472Z,20.93
2022-10-28T22:26:13.999Z,18.87
2022-10-28T22:28:41.547Z,20.17
2022-10-28T22:31:12.589Z,20.00
2022-10-28T22:33:40.053Z,21.33
2022-10-28T22:36:13.956Z,21.53
2022-10-28T22:38:42.995Z,17.43
2022-10-28T22:41:25.794Z,19.47
2022-10-28T22:43:56.446Z,19.77
2022-10-28T22:46:26.536Z,19.40
2022-10-28T22:48:54.187Z,20.63
2022-10-28T22:51:21.852Z,18.80
2022-10-28T22:53:49.640Z,17.30
2022-10-28T22:56:20.691Z,18.57
2022-10-28T22:58:52.822Z,19.73
2022-10-28T23:01:20.653Z,18.03
2022-10-28T23:03:50.841Z,20.40
2022-10-28T23:06:21.529Z,18.70
2022-10-28T23:08:48.882Z,18.10
2022-10-28T23:11:18.125Z,18.37
2022-10-28T23:13:46.105Z,17.60
2022-10-28T23:16:15.614Z,17.60
2022-10-28T23:18:44.522Z,20.13
2022-10-28T23:21:16.723Z,17.67
2022-10-28T23:23:49.741Z,19.37
2022-10-28T23:26:20.250Z,18.13
2022-10-28T23:28:52.755Z,20.77
2022-10-28T23:31:21.136Z,19.60
2022-10-28T23:33:48.280Z,19.50
2022-10-28T23:36:15.882Z,19.70
2022-10-28T23:38:43.310Z,20.27
2022-10-28T23:41:16.073Z,19.03
2022-10-28T23:43:43.462Z,18.70
2022-10-28T23:46:10.855Z,18.33
2022-10-28T23:48:38.030Z,18.03
2022-10-28T23:51:05.300Z,24.17
2022-10-28T23:53:32.353Z,17.90
2022-10-28T23:55:59.398Z,16.83
2022-10-28T23:58:26.858Z,15.90
